Fort Davis, TX

5:09 PM CDT on June 02, 2015 (GMT -0500)
3 Dog Ranch | | Change Station
CLOSE
Current Station
Personal Weather Station
Location: Fort Davis, TX
Elevation: 5274 ft
Nearby Weather Stations
Active Advisory: Special Statement

Elev 5274 ft 30.61 °N, 103.97 °W | Updated 5 seconds ago

Partly Cloudy
Partly Cloudy
79.2 °F
Feels Like 78 °F
N
8.3
Wind Variable Wind from East
Gusts 8.3 mph

Today
High -- | Low -- °F
--% Chance of Precip.
Yesterday
High -- | Low -- °F
Precip. -- in
6:53 AM 8:53 PM
Full, 100% visible
Pressure 30.08 in
Visibility 10.0 miles
Clouds Few 3300 ft
Few 5000 ft
Scattered Clouds 12000 ft
Heat Index 78 °F
Dew Point 28 °F
Humidity 15%
Rainfall 0.00 in
Snow Depth Not available.
UV 6 out of 12
Pollen 5.80 out of 12
Air Quality Not available.
Flu Activity Local Activity
METAR KMRF 022155Z AUTO 10012KT 10SM FEW033 FEW050 SCT120 29/08 A3008 RMK AO1 LTG DSNT N

More Conditions Fewer Conditions

Pressure 30.08 in
Visibility 10.0 miles
Clouds Few 3300 ft
Few 5000 ft
Scattered Clouds 12000 ft
Heat Index 78 °F
Dew Point 28 °F
Humidity 15%
Rainfall 0.00 in
Snow Depth Not available.
UV 6 out of 12
Pollen 5.80 out of 12
Air Quality Not available.
Flu Activity Local Activity
METAR KMRF 022155Z AUTO 10012KT 10SM FEW033 FEW050 SCT120 29/08 A3008 RMK AO1 LTG DSNT N

More Conditions Fewer Conditions

10-Day Weather Forecast

×

Almanac

Astronomy

Jun. 02, 2015 Rise Set
Actual Time
Civil Twilight
Nautical Twilight
Astronomical Twilight
Moon
Length of Visible Light
Length of Day
Tomorrow will be .
, % of the Moon is Illuminated

Today's Extremes

State Highs State Lows

Community

WunderPhotos

Upload Photos

1,826,032 photos uploaded!

WunderBlogs® & News

Nearby

Air Quality

  Air Quality AQ Index Pollutant
Not available.

Snow Depth

Station Depth Elevation

Earthquake Activity

City Distance Mag. Time & Date
Minimum magnitude displayed is 2.5.

Coastal Water Temperatures

Place Temperature

Stations

Nearby Weather Stations

Station Location Temp. Windchill Dew Point Humidity Wind Precip. Elev Updated Type
                   
Special Statement
Statement as of 4:47 PM CDT on June 02, 2015

... Significant weather advisory for an intensifying thunderstorm
affecting east central Jeff Davis and south central Reeves counties
until 515 PM CDT...

An intensifying thunderstorm was located over Toyahvale at 447 PM
CDT... moving east at 10 mph. This storm will impact sh 17. Nickel
sized hail and gusty winds up to 50 mph are possible with this
storm.

Precautionary/preparedness actions...

In addition to hail and strong winds... deadly cloud to ground
lightning can be expected. Remember... if you can hear thunder... you
are close enough to be struck by lightning. Seek safe shelter now.


Lat... Lon 3107 10356 3072 10365 3084 10394 3108 10387
time... Mot... loc 2147z 287deg 11kt 3095 10380